createdAt,value
2023-01-17T00:01:31.135Z,86.99
2023-01-17T00:04:16.595Z,87.14
2023-01-17T00:07:02.140Z,87.98
2023-01-17T00:09:47.462Z,88.06
2023-01-17T00:12:14.280Z,88.55
2023-01-17T00:14:41.049Z,88.66
2023-01-17T00:17:07.783Z,86.98
2023-01-17T00:19:53.294Z,86.61
2023-01-17T00:22:42.183Z,86.36
2023-01-17T00:25:39.761Z,86.67
2023-01-17T00:28:07.067Z,86.58
2023-01-17T00:30:34.044Z,86.23
2023-01-17T00:33:01.046Z,86.05
2023-01-17T00:35:29.674Z,85.67
2023-01-17T00:38:10.230Z,86.02
2023-01-17T00:40:39.369Z,86.02
2023-01-17T00:43:26.331Z,86.10
2023-01-17T00:46:12.361Z,87.40
2023-01-17T00:48:57.941Z,87.48
2023-01-17T00:51:44.824Z,88.26
2023-01-17T00:54:30.846Z,87.71
2023-01-17T00:57:16.416Z,86.86
2023-01-17T01:00:02.819Z,86.13
2023-01-17T01:02:48.337Z,85.73
2023-01-17T01:05:34.262Z,85.90
2023-01-17T01:08:20.507Z,85.84
2023-01-17T01:11:07.010Z,85.89
2023-01-17T01:13:53.010Z,86.17
2023-01-17T01:16:39.256Z,85.17
2023-01-17T01:19:24.674Z,85.37
2023-01-17T01:22:09.992Z,84.65
2023-01-17T01:24:55.446Z,84.76
2023-01-17T01:27:40.860Z,84.02
2023-01-17T01:30:27.047Z,84.06
2023-01-17T01:33:12.553Z,83.98
2023-01-17T01:35:39.417Z,83.62
2023-01-17T01:38:06.342Z,83.18
2023-01-17T01:40:33.086Z,82.85
2023-01-17T01:43:00.701Z,82.97
2023-01-17T01:45:30.346Z,82.65
2023-01-17T01:48:27.036Z,82.15
2023-01-17T01:50:53.809Z,80.63
2023-01-17T01:53:21.386Z,80.96
2023-01-17T01:55:50.938Z,80.53
2023-01-17T01:58:27.512Z,80.89
2023-01-17T02:00:54.369Z,81.03
2023-01-17T02:03:25.905Z,81.15
2023-01-17T02:05:53.021Z,80.84
2023-01-17T02:08:22.728Z,80.64
2023-01-17T02:10:50.676Z,80.34
2023-01-17T02:13:20.276Z,80.45
2023-01-17T02:15:55.714Z,81.24
2023-01-17T02:19:15.981Z,82.11
2023-01-17T02:21:58.025Z,82.13
2023-01-17T02:24:59.634Z,81.76
2023-01-17T02:27:58.854Z,81.79
2023-01-17T02:30:39.256Z,81.81
2023-01-17T02:33:12.421Z,81.62
2023-01-17T02:35:49.047Z,82.08
2023-01-17T02:38:35.586Z,82.64
2023-01-17T02:41:07.814Z,82.57
2023-01-17T02:43:37.355Z,83.23
2023-01-17T02:46:04.153Z,83.76
2023-01-17T02:48:33.376Z,83.76
2023-01-17T02:51:26.959Z,84.07
2023-01-17T02:53:59.741Z,84.10
2023-01-17T02:56:56.812Z,84.79
2023-01-17T02:59:40.674Z,84.80
2023-01-17T03:02:27.699Z,85.35
2023-01-17T03:05:03.307Z,85.41
2023-01-17T03:07:31.574Z,84.50
2023-01-17T03:10:03.431Z,84.59
2023-01-17T03:12:33.548Z,84.01
2023-01-17T03:15:00.368Z,84.22
2023-01-17T03:17:32.303Z,84.33
2023-01-17T03:19:59.444Z,83.97
2023-01-17T03:22:26.201Z,84.17
2023-01-17T03:24:53.093Z,84.12
2023-01-17T03:27:19.804Z,83.66
2023-01-17T03:29:46.643Z,83.95
2023-01-17T03:32:13.369Z,84.00
2023-01-17T03:34:40.337Z,83.55
2023-01-17T03:37:10.253Z,83.65
2023-01-17T03:39:37.018Z,83.74
2023-01-17T03:42:03.911Z,83.87
2023-01-17T03:44:30.685Z,83.84
2023-01-17T03:46:57.517Z,83.92
2023-01-17T03:49:24.311Z,84.17
2023-01-17T03:51:51.102Z,83.36
2023-01-17T03:54:17.931Z,83.69
2023-01-17T03:56:44.627Z,82.67
2023-01-17T03:59:13.178Z,83.26
2023-01-17T04:01:40.243Z,83.26
2023-01-17T04:04:07.056Z,82.97
2023-01-17T04:06:33.782Z,83.16
2023-01-17T04:09:00.558Z,82.80
2023-01-17T04:11:27.280Z,82.74
2023-01-17T04:13:55.167Z,81.78
2023-01-17T04:16:28.911Z,81.74
2023-01-17T04:18:56.002Z,79.38
2023-01-17T04:21:23.560Z,78.76
2023-01-17T04:23:50.466Z,77.50
2023-01-17T04:26:17.241Z,76.70
2023-01-17T04:28:44.208Z,76.60
2023-01-17T04:31:15.664Z,76.15
2023-01-17T04:33:42.767Z,75.12
2023-01-17T04:36:09.754Z,74.40
2023-01-17T04:38:36.577Z,74.27
2023-01-17T04:41:03.346Z,73.23
2023-01-17T04:43:30.068Z,70.89
2023-01-17T04:45:57.780Z,69.55
2023-01-17T04:48:24.869Z,69.28
2023-01-17T04:51:03.382Z,69.45
2023-01-17T04:53:30.436Z,70.22
2023-01-17T04:56:00.222Z,70.40
2023-01-17T04:58:27.706Z,69.64
2023-01-17T05:00:54.866Z,70.42
2023-01-17T05:03:23.090Z,70.04
2023-01-17T05:05:49.969Z,70.24
2023-01-17T05:08:17.110Z,71.85
2023-01-17T05:10:46.948Z,71.87
2023-01-17T05:13:15.002Z,70.97
2023-01-17T05:15:41.863Z,71.61
2023-01-17T05:18:13.713Z,72.29
2023-01-17T05:20:40.656Z,73.14
2023-01-17T05:23:07.855Z,74.40
2023-01-17T05:25:35.787Z,74.73
2023-01-17T05:28:03.380Z,75.16
2023-01-17T05:30:31.675Z,74.39
2023-01-17T05:32:58.619Z,74.66
2023-01-17T05:35:32.498Z,75.60
2023-01-17T05:37:59.537Z,76.01
2023-01-17T05:40:29.236Z,76.36
2023-01-17T05:42:57.514Z,77.51
2023-01-17T05:45:25.987Z,77.54
2023-01-17T05:47:54.377Z,76.97
2023-01-17T05:50:26.367Z,76.21
2023-01-17T05:52:58.689Z,77.35
2023-01-17T05:55:27.028Z,77.68
2023-01-17T05:57:54.790Z,78.48
2023-01-17T06:00:22.283Z,79.62
2023-01-17T06:02:49.146Z,80.53
2023-01-17T06:05:16.780Z,80.53
2023-01-17T06:07:45.978Z,80.48
2023-01-17T06:10:14.659Z,81.46
2023-01-17T06:12:43.156Z,82.01
2023-01-17T06:15:11.146Z,82.18
2023-01-17T06:17:38.085Z,82.39
2023-01-17T06:20:07.144Z,81.79
2023-01-17T06:22:33.971Z,80.93
2023-01-17T06:25:00.943Z,80.53
2023-01-17T06:27:27.732Z,80.43
2023-01-17T06:29:54.486Z,81.31
2023-01-17T06:32:21.379Z,82.07
2023-01-17T06:34:48.090Z,81.93
2023-01-17T06:37:14.881Z,80.98
2023-01-17T06:39:41.667Z,80.62
2023-01-17T06:42:08.579Z,80.58
2023-01-17T06:44:35.328Z,81.28
2023-01-17T06:47:02.157Z,81.62
2023-01-17T06:49:28.960Z,80.40
2023-01-17T06:51:55.699Z,81.18
2023-01-17T06:54:22.507Z,81.06
2023-01-17T06:56:49.247Z,81.27
2023-01-17T06:59:15.941Z,80.07
2023-01-17T07:01:42.717Z,79.20
2023-01-17T07:04:09.511Z,78.95
2023-01-17T07:06:37.164Z,78.31
2023-01-17T07:09:04.359Z,78.51
2023-01-17T07:11:31.449Z,78.19
2023-01-17T07:13:58.507Z,78.58
2023-01-17T07:16:25.677Z,78.18
2023-01-17T07:18:54.634Z,78.37
2023-01-17T07:21:21.814Z,78.93
2023-01-17T07:23:48.863Z,81.44
2023-01-17T07:26:17.243Z,82.30
2023-01-17T07:28:44.217Z,83.49
2023-01-17T07:31:11.366Z,82.72
2023-01-17T07:33:38.200Z,83.24
2023-01-17T07:36:09.290Z,83.27
2023-01-17T07:38:36.251Z,83.68
2023-01-17T07:41:03.142Z,83.65
2023-01-17T07:43:29.962Z,84.83
2023-01-17T07:45:56.759Z,84.36
2023-01-17T07:48:24.914Z,85.13
2023-01-17T07:50:56.347Z,85.98
2023-01-17T07:53:25.178Z,86.80
2023-01-17T07:55:52.447Z,87.76
2023-01-17T07:58:19.518Z,88.30
2023-01-17T08:00:46.482Z,88.63
2023-01-17T08:03:15.964Z,87.99
2023-01-17T08:05:51.961Z,87.58
2023-01-17T08:08:18.715Z,87.17
2023-01-17T08:10:45.563Z,87.27
2023-01-17T08:13:12.211Z,87.35
2023-01-17T08:15:38.977Z,86.98
2023-01-17T08:18:05.746Z,86.48
2023-01-17T08:20:32.527Z,85.89
2023-01-17T08:23:00.029Z,86.19
2023-01-17T08:25:27.062Z,86.77
2023-01-17T08:27:57.225Z,86.96
2023-01-17T08:30:24.158Z,86.95
2023-01-17T08:32:50.887Z,86.68
2023-01-17T08:35:19.826Z,86.13
2023-01-17T08:37:47.893Z,85.83
2023-01-17T08:40:18.958Z,86.41
2023-01-17T08:42:58.119Z,86.58
2023-01-17T08:45:25.074Z,86.31
2023-01-17T08:47:52.524Z,86.97
2023-01-17T08:50:22.644Z,86.24
2023-01-17T08:52:49.993Z,86.12
2023-01-17T08:55:17.302Z,86.19
2023-01-17T08:57:44.088Z,85.17
2023-01-17T09:00:11.433Z,84.99
2023-01-17T09:02:38.220Z,83.92
2023-01-17T09:05:05.581Z,84.21
2023-01-17T09:07:32.475Z,83.51
2023-01-17T09:09:59.238Z,83.30
2023-01-17T09:12:26.596Z,82.79
2023-01-17T09:14:53.350Z,81.65
2023-01-17T09:17:20.410Z,81.47
2023-01-17T09:19:48.598Z,80.71
2023-01-17T09:22:15.533Z,80.22
2023-01-17T09:24:42.503Z,80.14
2023-01-17T09:27:09.325Z,79.49
2023-01-17T09:29:36.082Z,78.82
2023-01-17T09:32:03.088Z,77.77
2023-01-17T09:34:30.946Z,77.03
2023-01-17T09:36:58.231Z,76.00
2023-01-17T09:39:25.201Z,75.54
2023-01-17T09:42:09.595Z,75.08
2023-01-17T09:44:46.493Z,75.54
2023-01-17T09:47:19.992Z,74.54
2023-01-17T09:53:23.688Z,72.15
2023-01-17T09:55:58.894Z,72.35
2023-01-17T09:58:49.725Z,72.40
2023-01-17T10:01:39.955Z,71.50
2023-01-17T10:04:38.516Z,71.42
2023-01-17T10:07:28.676Z,70.42
2023-01-17T10:10:16.976Z,69.93
2023-01-17T10:12:50.923Z,69.55
2023-01-17T10:15:58.191Z,69.22
2023-01-17T10:18:45.768Z,67.91
2023-01-17T10:21:22.470Z,66.71
2023-01-17T10:23:58.354Z,66.72
2023-01-17T10:26:26.711Z,66.92
2023-01-17T10:29:00.153Z,66.55
2023-01-17T10:31:29.839Z,65.67
2023-01-17T10:34:03.602Z,66.33
2023-01-17T10:36:37.928Z,64.71
2023-01-17T10:39:17.504Z,64.12
2023-01-17T10:41:50.784Z,63.52
2023-01-17T10:44:35.599Z,62.12
2023-01-17T10:47:11.357Z,62.36
2023-01-17T10:49:59.537Z,61.75
2023-01-17T10:52:52.867Z,60.21
2023-01-17T10:55:37.112Z,60.28
2023-01-17T10:58:04.615Z,60.49
2023-01-17T11:00:52.388Z,59.04
2023-01-17T11:03:23.861Z,59.75
2023-01-17T11:06:17.264Z,58.66
2023-01-17T11:08:58.630Z,60.02
2023-01-17T11:11:37.582Z,61.51
2023-01-17T11:14:14.361Z,62.44
2023-01-17T11:16:41.424Z,61.44
2023-01-17T11:19:26.792Z,62.54
2023-01-17T11:21:58.559Z,63.15
2023-01-17T11:24:36.030Z,64.24
2023-01-17T11:27:05.589Z,64.79
2023-01-17T11:29:36.121Z,66.13
2023-01-17T11:32:22.140Z,66.43
2023-01-17T11:35:45.944Z,65.89
2023-01-17T11:38:20.326Z,65.08
2023-01-17T11:40:49.295Z,64.99
2023-01-17T11:43:25.409Z,63.10
2023-01-17T11:46:15.216Z,62.64
2023-01-17T11:48:46.601Z,62.17
2023-01-17T11:51:22.981Z,62.25
2023-01-17T11:53:50.158Z,61.98
2023-01-17T11:56:37.769Z,60.45
2023-01-17T11:59:24.156Z,59.82
2023-01-17T12:02:18.988Z,58.86
2023-01-17T12:04:53.571Z,60.67
2023-01-17T12:07:46.245Z,61.73
2023-01-17T12:10:43.688Z,58.41
2023-01-17T12:13:52.565Z,57.59
2023-01-17T12:16:50.363Z,57.44
2023-01-17T12:19:20.079Z,58.05
2023-01-17T12:22:26.981Z,57.31
2023-01-17T12:25:39.962Z,56.83
2023-01-17T12:28:57.221Z,55.29
2023-01-17T12:31:34.361Z,55.35
2023-01-17T12:34:07.227Z,55.70
2023-01-17T12:36:49.707Z,55.88
2023-01-17T12:39:26.097Z,55.16
2023-01-17T12:42:09.065Z,56.24
2023-01-17T12:45:05.476Z,55.46
2023-01-17T12:47:37.713Z,55.76
2023-01-17T12:50:27.385Z,55.82
2023-01-17T12:53:04.562Z,56.42
2023-01-17T12:55:41.463Z,57.16
2023-01-17T12:58:24.701Z,57.12
2023-01-17T13:01:01.436Z,57.49
2023-01-17T13:03:55.059Z,57.69
2023-01-17T13:06:45.819Z,57.72
2023-01-17T13:09:18.936Z,58.10
2023-01-17T13:11:51.872Z,57.50
2023-01-17T13:14:18.921Z,56.95
2023-01-17T13:17:03.423Z,56.69
2023-01-17T13:19:36.346Z,56.30
2023-01-17T13:22:09.940Z,56.29
2023-01-17T13:24:48.207Z,57.53
2023-01-17T13:27:39.894Z,57.15
2023-01-17T13:30:49.936Z,57.21
2023-01-17T13:33:41.625Z,57.60
2023-01-17T13:36:14.419Z,57.36
2023-01-17T13:39:38.392Z,56.63
2023-01-17T13:42:23.908Z,57.19
2023-01-17T13:44:53.863Z,57.25
2023-01-17T13:47:23.004Z,56.87
2023-01-17T13:49:56.137Z,56.30
2023-01-17T13:52:33.403Z,56.53
2023-01-17T13:55:03.499Z,56.52
2023-01-17T13:57:36.044Z,56.04
2023-01-17T14:00:15.776Z,56.39
2023-01-17T14:02:43.597Z,56.90
2023-01-17T14:05:29.096Z,57.60
2023-01-17T14:07:58.766Z,57.77
2023-01-17T14:10:37.858Z,57.25
2023-01-17T14:13:25.183Z,57.94
2023-01-17T14:15:52.281Z,57.70
2023-01-17T14:18:39.958Z,58.48
2023-01-17T14:21:25.445Z,58.53
2023-01-17T14:24:10.677Z,59.59
2023-01-17T14:26:47.639Z,58.73
2023-01-17T14:29:42.534Z,59.04
2023-01-17T14:32:15.944Z,58.29
2023-01-17T14:34:45.997Z,58.51
2023-01-17T14:37:18.388Z,58.12
2023-01-17T14:39:47.673Z,58.18
2023-01-17T14:42:21.591Z,58.05
2023-01-17T14:44:52.698Z,57.67
2023-01-17T14:47:19.974Z,57.79
2023-01-17T14:49:46.936Z,57.23
2023-01-17T14:52:17.778Z,58.16
2023-01-17T14:54:50.119Z,58.31
2023-01-17T14:57:35.090Z,59.06
2023-01-17T15:00:13.739Z,59.05
2023-01-17T15:02:51.648Z,58.92
2023-01-17T15:05:24.364Z,58.25
2023-01-17T15:07:57.443Z,58.83
2023-01-17T15:10:29.956Z,58.36
2023-01-17T15:12:58.987Z,58.48
2023-01-17T15:15:41.747Z,59.66
2023-01-17T15:18:18.372Z,58.84
2023-01-17T15:20:52.670Z,58.90
2023-01-17T15:23:21.836Z,59.31
2023-01-17T15:25:50.397Z,59.58
2023-01-17T15:28:34.820Z,58.69
2023-01-17T15:31:06.805Z,59.31
2023-01-17T15:33:35.322Z,59.15
2023-01-17T15:36:22.807Z,59.56
2023-01-17T15:39:02.204Z,60.32
2023-01-17T15:41:39.806Z,59.80
2023-01-17T15:44:08.378Z,59.97
2023-01-17T15:46:42.310Z,61.02
2023-01-17T15:49:20.712Z,60.18
2023-01-17T15:51:50.475Z,60.68
2023-01-17T15:54:50.554Z,60.43
2023-01-17T15:57:20.465Z,62.38
2023-01-17T16:00:07.791Z,60.75
2023-01-17T16:02:43.142Z,60.89
2023-01-17T16:05:30.846Z,61.58
2023-01-17T16:08:04.369Z,61.95
2023-01-17T16:10:35.542Z,63.18
2023-01-17T16:13:04.290Z,63.07
2023-01-17T16:15:31.239Z,63.62
2023-01-17T16:18:04.908Z,64.57
2023-01-17T16:20:41.735Z,65.23
2023-01-17T16:23:10.204Z,65.82
2023-01-17T16:25:36.939Z,66.86
2023-01-17T16:28:04.156Z,66.45
2023-01-17T16:30:31.486Z,64.73
2023-01-17T16:32:58.580Z,64.01
2023-01-17T16:35:28.237Z,64.18
2023-01-17T16:37:57.539Z,63.89
2023-01-17T16:40:28.272Z,64.35
2023-01-17T16:42:56.309Z,64.81
2023-01-17T16:45:26.349Z,66.53
2023-01-17T16:47:54.492Z,65.49
2023-01-17T16:50:25.201Z,65.49
2023-01-17T16:52:54.183Z,66.83
2023-01-17T16:55:23.695Z,66.34
2023-01-17T16:57:54.030Z,65.41
2023-01-17T17:00:22.844Z,63.79
2023-01-17T17:02:53.470Z,63.72
2023-01-17T17:05:20.618Z,64.39
2023-01-17T17:07:50.133Z,64.97
2023-01-17T17:10:20.230Z,63.28
2023-01-17T17:12:47.898Z,62.59
2023-01-17T17:15:14.865Z,62.84
2023-01-17T17:17:43.177Z,62.93
2023-01-17T17:20:13.258Z,62.60
2023-01-17T17:22:45.790Z,63.03
2023-01-17T17:25:15.857Z,62.29
2023-01-17T17:27:43.057Z,61.86
2023-01-17T17:30:11.641Z,61.83
2023-01-17T17:32:38.804Z,61.20
2023-01-17T17:35:06.641Z,61.47
2023-01-17T17:37:34.425Z,60.69
2023-01-17T17:40:01.644Z,59.12
2023-01-17T17:42:28.621Z,59.35
2023-01-17T17:44:55.372Z,61.49
2023-01-17T17:47:24.065Z,63.10
2023-01-17T17:49:50.811Z,63.82
2023-01-17T17:52:17.482Z,63.47
2023-01-17T17:54:45.280Z,65.00
2023-01-17T17:57:12.150Z,67.32
2023-01-17T17:59:38.895Z,69.43
2023-01-17T18:02:10.611Z,72.04
2023-01-17T18:04:37.867Z,74.15
2023-01-17T18:07:04.830Z,75.22
2023-01-17T18:09:32.060Z,76.99
2023-01-17T18:12:00.078Z,78.93
2023-01-17T18:14:26.973Z,81.18
2023-01-17T18:16:53.883Z,83.71
2023-01-17T18:19:25.897Z,85.04
2023-01-17T18:21:53.132Z,86.86
2023-01-17T18:24:23.917Z,88.56
2023-01-17T18:26:53.002Z,91.69
2023-01-17T18:29:21.837Z,93.75
2023-01-17T18:31:50.606Z,96.40
2023-01-17T18:34:21.171Z,98.14
2023-01-17T18:36:47.977Z,99.21
2023-01-17T18:39:21.028Z,100.00
2023-01-17T18:41:48.313Z,100.00
2023-01-17T18:44:15.767Z,100.00
2023-01-17T18:46:43.256Z,100.00
2023-01-17T18:49:11.999Z,100.00
2023-01-17T18:51:39.021Z,100.00
2023-01-17T18:54:07.251Z,100.00
2023-01-17T18:56:36.098Z,100.00
2023-01-17T18:59:05.747Z,100.00
2023-01-17T19:01:35.935Z,100.00
2023-01-17T19:04:04.672Z,100.00
2023-01-17T19:06:34.605Z,100.00
2023-01-17T19:09:02.528Z,100.00
2023-01-17T19:11:30.043Z,100.00
2023-01-17T19:13:57.163Z,100.00
2023-01-17T19:16:32.743Z,100.00
2023-01-17T19:19:07.167Z,100.00
2023-01-17T19:21:34.179Z,100.00
2023-01-17T19:24:01.551Z,100.00
2023-01-17T19:26:29.891Z,100.00
2023-01-17T19:28:58.746Z,100.00
2023-01-17T19:31:30.073Z,100.00
2023-01-17T19:33:58.555Z,100.00
2023-01-17T19:36:28.415Z,100.00
2023-01-17T19:39:04.387Z,100.00
2023-01-17T19:41:37.003Z,100.00
2023-01-17T19:44:06.827Z,100.00
2023-01-17T19:46:35.299Z,100.00
2023-01-17T19:49:03.119Z,100.00
2023-01-17T19:51:30.272Z,100.00
2023-01-17T19:53:59.842Z,100.00
2023-01-17T19:56:27.417Z,100.00
2023-01-17T19:58:54.448Z,100.00
2023-01-17T20:01:28.527Z,100.00
2023-01-17T20:03:57.939Z,100.00
2023-01-17T20:06:28.999Z,100.00
2023-01-17T20:08:56.253Z,100.00
2023-01-17T20:11:24.995Z,100.00
2023-01-17T20:13:55.582Z,100.00
2023-01-17T20:16:24.358Z,100.00
2023-01-17T20:18:52.004Z,100.00
2023-01-17T20:21:24.877Z,100.00
2023-01-17T20:23:52.807Z,100.00
2023-01-17T20:26:35.001Z,100.00
2023-01-17T20:29:09.950Z,100.00
2023-01-17T20:31:40.226Z,100.00
2023-01-17T20:34:10.522Z,100.00
2023-01-17T20:36:38.748Z,100.00
2023-01-17T20:39:07.680Z,100.00
2023-01-17T20:41:38.934Z,100.00
2023-01-17T20:44:07.562Z,100.00
2023-01-17T20:46:40.432Z,100.00
2023-01-17T20:49:13.557Z,100.00
2023-01-17T20:51:44.937Z,100.00
2023-01-17T20:54:14.396Z,100.00
2023-01-17T20:56:41.930Z,100.00
2023-01-17T20:59:12.722Z,100.00
2023-01-17T21:01:39.647Z,100.00
2023-01-17T21:04:09.977Z,100.00
2023-01-17T21:06:39.552Z,100.00
2023-01-17T21:09:07.329Z,100.00
2023-01-17T21:11:34.502Z,100.00
2023-01-17T21:14:01.651Z,100.00
2023-01-17T21:16:29.122Z,100.00
2023-01-17T21:18:55.989Z,100.00
2023-01-17T21:21:25.628Z,100.00
2023-01-17T21:23:58.205Z,100.00
2023-01-17T21:26:28.642Z,100.00
2023-01-17T21:28:56.046Z,100.00
2023-01-17T21:31:33.381Z,100.00
2023-01-17T21:34:05.629Z,100.00
2023-01-17T21:36:38.257Z,100.00
2023-01-17T21:39:10.025Z,100.00
2023-01-17T21:41:41.173Z,100.00
2023-01-17T21:44:13.321Z,100.00
2023-01-17T21:46:40.865Z,100.00
2023-01-17T21:49:11.735Z,100.00
2023-01-17T21:51:55.401Z,100.00
2023-01-17T21:54:44.235Z,100.00
2023-01-17T21:57:31.235Z,100.00
2023-01-17T21:59:58.065Z,100.00
2023-01-17T22:02:25.017Z,100.00
2023-01-17T22:04:54.404Z,100.00
2023-01-17T22:07:21.245Z,100.00
2023-01-17T22:09:48.093Z,100.00
2023-01-17T22:12:15.227Z,100.00
2023-01-17T22:14:41.892Z,100.00
2023-01-17T22:17:08.658Z,100.00
2023-01-17T22:19:35.450Z,100.00
2023-01-17T22:22:02.515Z,100.00
2023-01-17T22:24:29.346Z,100.00
2023-01-17T22:26:56.156Z,100.00
2023-01-17T22:29:22.994Z,100.00
2023-01-17T22:31:49.932Z,100.00
2023-01-17T22:34:18.753Z,100.00
2023-01-17T22:36:45.546Z,100.00
2023-01-17T22:39:12.368Z,100.00
2023-01-17T22:41:39.194Z,100.00
2023-01-17T22:44:07.585Z,100.00
2023-01-17T22:46:38.333Z,100.00
2023-01-17T22:49:08.212Z,100.00
2023-01-17T22:51:35.512Z,100.00
2023-01-17T22:54:02.534Z,100.00
2023-01-17T22:56:32.096Z,100.00
2023-01-17T22:59:01.453Z,100.00
2023-01-17T23:01:30.228Z,100.00
2023-01-17T23:03:59.662Z,100.00
2023-01-17T23:06:30.266Z,100.00
2023-01-17T23:08:59.772Z,100.00
2023-01-17T23:11:43.146Z,100.00
2023-01-17T23:14:11.669Z,100.00
2023-01-17T23:16:59.077Z,100.00
2023-01-17T23:19:29.251Z,100.00
2023-01-17T23:22:15.777Z,100.00
2023-01-17T23:25:05.262Z,100.00
2023-01-17T23:27:59.325Z,100.00
2023-01-17T23:30:35.948Z,100.00
2023-01-17T23:33:14.493Z,100.00
2023-01-17T23:35:46.215Z,100.00
2023-01-17T23:38:28.926Z,100.00
2023-01-17T23:41:23.122Z,100.00
2023-01-17T23:43:54.039Z,100.00
2023-01-17T23:46:21.400Z,100.00
2023-01-17T23:48:48.371Z,100.00
2023-01-17T23:51:15.143Z,100.00
2023-01-17T23:53:42.380Z,100.00
2023-01-17T23:56:18.746Z,100.00
2023-01-17T23:58:45.442Z,100.00
